sensor_id;sensor_type;location;lat;lon;timestamp;P1;durP1;ratioP1;P2;durP2;ratioP2
19735;SDS011;32064;49.310;8.646;2023-11-25T00:00:21;3.20;;;0.60;;
19735;SDS011;32064;49.310;8.646;2023-11-25T00:02:50;0.87;;;0.63;;
19735;SDS011;32064;49.310;8.646;2023-11-25T00:05:16;0.50;;;0.40;;
19735;SDS011;32064;49.310;8.646;2023-11-25T00:07:42;0.40;;;0.40;;
19735;SDS011;32064;49.310;8.646;2023-11-25T00:10:07;1.53;;;0.63;;
19735;SDS011;32064;49.310;8.646;2023-11-25T00:12:36;0.97;;;0.40;;
19735;SDS011;32064;49.310;8.646;2023-11-25T00:15:02;1.13;;;0.47;;
19735;SDS011;32064;49.310;8.646;2023-11-25T00:17:28;4.03;;;0.77;;
19735;SDS011;32064;49.310;8.646;2023-11-25T00:19:55;0.77;;;0.50;;
19735;SDS011;32064;49.310;8.646;2023-11-25T00:22:21;0.67;;;0.50;;
19735;SDS011;32064;49.310;8.646;2023-11-25T00:24:47;0.93;;;0.60;;
19735;SDS011;32064;49.310;8.646;2023-11-25T00:27:14;0.50;;;0.50;;
19735;SDS011;32064;49.310;8.646;2023-11-25T00:29:39;1.43;;;0.60;;
19735;SDS011;32064;49.310;8.646;2023-11-25T00:32:05;0.97;;;0.50;;
19735;SDS011;32064;49.310;8.646;2023-11-25T00:34:32;0.30;;;0.30;;
19735;SDS011;32064;49.310;8.646;2023-11-25T00:36:58;0.43;;;0.43;;
19735;SDS011;32064;49.310;8.646;2023-11-25T00:39:23;0.40;;;0.40;;
19735;SDS011;32064;49.310;8.646;2023-11-25T00:41:49;0.77;;;0.43;;
19735;SDS011;32064;49.310;8.646;2023-11-25T00:44:14;1.60;;;0.77;;
19735;SDS011;32064;49.310;8.646;2023-11-25T00:46:40;0.60;;;0.60;;
19735;SDS011;32064;49.310;8.646;2023-11-25T00:49:05;1.87;;;0.93;;
19735;SDS011;32064;49.310;8.646;2023-11-25T00:51:31;0.53;;;0.53;;
19735;SDS011;32064;49.310;8.646;2023-11-25T00:53:57;2.43;;;0.80;;
19735;SDS011;32064;49.310;8.646;2023-11-25T00:56:23;0.90;;;0.57;;
19735;SDS011;32064;49.310;8.646;2023-11-25T00:58:48;2.30;;;0.70;;
19735;SDS011;32064;49.310;8.646;2023-11-25T01:01:14;0.77;;;0.73;;
19735;SDS011;32064;49.310;8.646;2023-11-25T01:03:39;1.67;;;0.90;;
19735;SDS011;32064;49.310;8.646;2023-11-25T01:06:07;0.83;;;0.53;;
19735;SDS011;32064;49.310;8.646;2023-11-25T01:08:34;0.50;;;0.50;;
19735;SDS011;32064;49.310;8.646;2023-11-25T01:10:59;0.53;;;0.53;;
19735;SDS011;32064;49.310;8.646;2023-11-25T01:13:25;0.73;;;0.60;;
19735;SDS011;32064;49.310;8.646;2023-11-25T01:15:50;0.50;;;0.50;;
19735;SDS011;32064;49.310;8.646;2023-11-25T01:18:19;0.57;;;0.57;;
19735;SDS011;32064;49.310;8.646;2023-11-25T01:20:45;0.50;;;0.50;;
19735;SDS011;32064;49.310;8.646;2023-11-25T01:23:11;1.53;;;0.70;;
19735;SDS011;32064;49.310;8.646;2023-11-25T01:25:37;0.87;;;0.70;;
19735;SDS011;32064;49.310;8.646;2023-11-25T01:28:02;0.50;;;0.50;;
19735;SDS011;32064;49.310;8.646;2023-11-25T01:30:29;0.63;;;0.63;;
19735;SDS011;32064;49.310;8.646;2023-11-25T01:32:56;0.83;;;0.67;;
19735;SDS011;32064;49.310;8.646;2023-11-25T01:35:24;1.07;;;0.80;;
19735;SDS011;32064;49.310;8.646;2023-11-25T01:37:50;1.43;;;1.17;;
19735;SDS011;32064;49.310;8.646;2023-11-25T01:40:15;1.90;;;0.93;;
19735;SDS011;32064;49.310;8.646;2023-11-25T01:42:41;8.23;;;0.93;;
19735;SDS011;32064;49.310;8.646;2023-11-25T01:45:06;1.60;;;0.60;;
19735;SDS011;32064;49.310;8.646;2023-11-25T01:47:34;4.57;;;0.80;;
19735;SDS011;32064;49.310;8.646;2023-11-25T01:50:00;0.73;;;0.67;;
19735;SDS011;32064;49.310;8.646;2023-11-25T01:52:27;1.80;;;0.57;;
19735;SDS011;32064;49.310;8.646;2023-11-25T01:54:55;0.70;;;0.70;;
19735;SDS011;32064;49.310;8.646;2023-11-25T01:57:20;4.43;;;1.10;;
19735;SDS011;32064;49.310;8.646;2023-11-25T01:59:46;1.27;;;0.93;;
19735;SDS011;32064;49.310;8.646;2023-11-25T02:02:14;2.40;;;1.10;;
19735;SDS011;32064;49.310;8.646;2023-11-25T02:04:43;1.17;;;0.83;;
19735;SDS011;32064;49.310;8.646;2023-11-25T02:07:11;1.53;;;0.90;;
19735;SDS011;32064;49.310;8.646;2023-11-25T02:09:37;5.50;;;1.03;;
19735;SDS011;32064;49.310;8.646;2023-11-25T02:12:02;0.90;;;0.70;;
19735;SDS011;32064;49.310;8.646;2023-11-25T02:14:28;1.40;;;1.00;;
19735;SDS011;32064;49.310;8.646;2023-11-25T02:16:54;0.83;;;0.70;;
19735;SDS011;32064;49.310;8.646;2023-11-25T02:19:21;0.93;;;0.80;;
19735;SDS011;32064;49.310;8.646;2023-11-25T02:21:49;0.77;;;0.77;;
19735;SDS011;32064;49.310;8.646;2023-11-25T02:24:15;1.37;;;0.93;;
19735;SDS011;32064;49.310;8.646;2023-11-25T02:26:41;3.03;;;0.80;;
19735;SDS011;32064;49.310;8.646;2023-11-25T02:29:08;1.03;;;0.97;;
19735;SDS011;32064;49.310;8.646;2023-11-25T02:31:34;3.67;;;0.80;;
19735;SDS011;32064;49.310;8.646;2023-11-25T02:34:03;0.43;;;0.43;;
19735;SDS011;32064;49.310;8.646;2023-11-25T02:36:32;0.87;;;0.80;;
19735;SDS011;32064;49.310;8.646;2023-11-25T02:38:58;1.13;;;0.67;;
19735;SDS011;32064;49.310;8.646;2023-11-25T02:41:23;0.90;;;0.70;;
19735;SDS011;32064;49.310;8.646;2023-11-25T02:43:49;1.60;;;0.73;;
19735;SDS011;32064;49.310;8.646;2023-11-25T02:46:17;1.53;;;0.73;;
19735;SDS011;32064;49.310;8.646;2023-11-25T02:48:42;0.73;;;0.50;;
19735;SDS011;32064;49.310;8.646;2023-11-25T02:51:08;0.60;;;0.60;;
19735;SDS011;32064;49.310;8.646;2023-11-25T02:53:34;0.40;;;0.40;;
19735;SDS011;32064;49.310;8.646;2023-11-25T02:55:59;1.23;;;0.63;;
19735;SDS011;32064;49.310;8.646;2023-11-25T02:58:25;2.23;;;0.70;;
19735;SDS011;32064;49.310;8.646;2023-11-25T03:00:52;0.60;;;0.60;;
19735;SDS011;32064;49.310;8.646;2023-11-25T03:03:25;1.47;;;0.77;;
19735;SDS011;32064;49.310;8.646;2023-11-25T03:05:52;0.50;;;0.50;;
19735;SDS011;32064;49.310;8.646;2023-11-25T03:08:18;1.80;;;1.00;;
19735;SDS011;32064;49.310;8.646;2023-11-25T03:10:44;0.60;;;0.60;;
19735;SDS011;32064;49.310;8.646;2023-11-25T03:13:13;1.43;;;1.03;;
19735;SDS011;32064;49.310;8.646;2023-11-25T03:15:39;0.90;;;0.57;;
19735;SDS011;32064;49.310;8.646;2023-11-25T03:18:05;5.23;;;1.20;;
19735;SDS011;32064;49.310;8.646;2023-11-25T03:20:33;0.60;;;0.60;;
19735;SDS011;32064;49.310;8.646;2023-11-25T03:22:59;0.70;;;0.60;;
19735;SDS011;32064;49.310;8.646;2023-11-25T03:25:25;1.43;;;0.60;;
19735;SDS011;32064;49.310;8.646;2023-11-25T03:27:53;0.67;;;0.63;;
19735;SDS011;32064;49.310;8.646;2023-11-25T03:30:19;1.40;;;0.70;;
19735;SDS011;32064;49.310;8.646;2023-11-25T03:32:45;0.53;;;0.50;;
19735;SDS011;32064;49.310;8.646;2023-11-25T03:35:10;0.63;;;0.43;;
19735;SDS011;32064;49.310;8.646;2023-11-25T03:37:35;0.60;;;0.60;;
19735;SDS011;32064;49.310;8.646;2023-11-25T03:40:00;0.97;;;0.60;;
19735;SDS011;32064;49.310;8.646;2023-11-25T03:42:26;0.67;;;0.57;;
19735;SDS011;32064;49.310;8.646;2023-11-25T03:44:52;1.27;;;0.77;;
19735;SDS011;32064;49.310;8.646;2023-11-25T03:47:17;0.60;;;0.57;;
19735;SDS011;32064;49.310;8.646;2023-11-25T03:49:43;1.60;;;0.90;;
19735;SDS011;32064;49.310;8.646;2023-11-25T03:52:09;0.60;;;0.60;;
19735;SDS011;32064;49.310;8.646;2023-11-25T03:54:37;0.67;;;0.67;;
19735;SDS011;32064;49.310;8.646;2023-11-25T03:57:02;2.00;;;0.70;;
19735;SDS011;32064;49.310;8.646;2023-11-25T03:59:28;1.33;;;0.70;;
19735;SDS011;32064;49.310;8.646;2023-11-25T04:01:53;1.33;;;0.97;;
19735;SDS011;32064;49.310;8.646;2023-11-25T04:04:19;0.43;;;0.43;;
19735;SDS011;32064;49.310;8.646;2023-11-25T04:06:44;0.97;;;0.70;;
19735;SDS011;32064;49.310;8.646;2023-11-25T04:09:10;1.27;;;0.83;;
19735;SDS011;32064;49.310;8.646;2023-11-25T04:11:35;1.20;;;0.77;;
19735;SDS011;32064;49.310;8.646;2023-11-25T04:14:00;0.60;;;0.60;;
19735;SDS011;32064;49.310;8.646;2023-11-25T04:16:26;1.17;;;0.80;;
19735;SDS011;32064;49.310;8.646;2023-11-25T04:18:51;8.23;;;1.20;;
19735;SDS011;32064;49.310;8.646;2023-11-25T04:21:19;2.30;;;0.83;;
19735;SDS011;32064;49.310;8.646;2023-11-25T04:23:51;2.53;;;1.00;;
19735;SDS011;32064;49.310;8.646;2023-11-25T04:26:23;1.17;;;0.83;;
19735;SDS011;32064;49.310;8.646;2023-11-25T04:28:50;0.53;;;0.53;;
19735;SDS011;32064;49.310;8.646;2023-11-25T04:31:15;1.10;;;1.03;;
19735;SDS011;32064;49.310;8.646;2023-11-25T04:33:41;2.50;;;1.30;;
19735;SDS011;32064;49.310;8.646;2023-11-25T04:36:07;1.93;;;1.10;;
19735;SDS011;32064;49.310;8.646;2023-11-25T04:38:32;1.83;;;0.97;;
19735;SDS011;32064;49.310;8.646;2023-11-25T04:40:58;1.97;;;1.13;;
19735;SDS011;32064;49.310;8.646;2023-11-25T04:43:24;1.33;;;0.93;;
19735;SDS011;32064;49.310;8.646;2023-11-25T04:45:49;0.90;;;0.80;;
19735;SDS011;32064;49.310;8.646;2023-11-25T04:48:14;0.83;;;0.60;;
19735;SDS011;32064;49.310;8.646;2023-11-25T04:50:40;1.87;;;0.97;;
19735;SDS011;32064;49.310;8.646;2023-11-25T04:53:05;0.93;;;0.87;;
19735;SDS011;32064;49.310;8.646;2023-11-25T04:55:31;1.10;;;0.80;;
19735;SDS011;32064;49.310;8.646;2023-11-25T04:57:56;0.50;;;0.50;;
19735;SDS011;32064;49.310;8.646;2023-11-25T05:00:22;0.60;;;0.60;;
19735;SDS011;32064;49.310;8.646;2023-11-25T05:02:48;0.57;;;0.57;;
19735;SDS011;32064;49.310;8.646;2023-11-25T05:05:13;0.97;;;0.80;;
19735;SDS011;32064;49.310;8.646;2023-11-25T05:07:39;1.90;;;1.10;;
19735;SDS011;32064;49.310;8.646;2023-11-25T05:10:05;0.73;;;0.73;;
19735;SDS011;32064;49.310;8.646;2023-11-25T05:12:34;2.10;;;0.90;;
19735;SDS011;32064;49.310;8.646;2023-11-25T05:15:00;1.07;;;0.60;;
19735;SDS011;32064;49.310;8.646;2023-11-25T05:17:25;0.70;;;0.53;;
19735;SDS011;32064;49.310;8.646;2023-11-25T05:19:51;1.50;;;0.63;;
19735;SDS011;32064;49.310;8.646;2023-11-25T05:22:17;0.50;;;0.50;;
19735;SDS011;32064;49.310;8.646;2023-11-25T05:24:44;0.80;;;0.70;;
19735;SDS011;32064;49.310;8.646;2023-11-25T05:27:09;0.90;;;0.70;;
19735;SDS011;32064;49.310;8.646;2023-11-25T05:29:35;1.13;;;0.80;;
19735;SDS011;32064;49.310;8.646;2023-11-25T05:32:00;0.73;;;0.60;;
19735;SDS011;32064;49.310;8.646;2023-11-25T05:34:27;0.70;;;0.70;;
19735;SDS011;32064;49.310;8.646;2023-11-25T05:36:53;1.60;;;0.70;;
19735;SDS011;32064;49.310;8.646;2023-11-25T05:39:18;0.97;;;0.80;;
19735;SDS011;32064;49.310;8.646;2023-11-25T05:41:45;0.67;;;0.67;;
19735;SDS011;32064;49.310;8.646;2023-11-25T05:44:11;1.10;;;1.00;;
19735;SDS011;32064;49.310;8.646;2023-11-25T05:46:37;0.70;;;0.70;;
19735;SDS011;32064;49.310;8.646;2023-11-25T05:49:03;1.97;;;1.00;;
19735;SDS011;32064;49.310;8.646;2023-11-25T05:51:36;3.47;;;1.20;;
19735;SDS011;32064;49.310;8.646;2023-11-25T05:54:08;2.77;;;1.40;;
19735;SDS011;32064;49.310;8.646;2023-11-25T05:56:37;2.03;;;1.20;;
19735;SDS011;32064;49.310;8.646;2023-11-25T05:59:04;1.77;;;1.43;;
19735;SDS011;32064;49.310;8.646;2023-11-25T06:01:29;1.27;;;1.17;;
19735;SDS011;32064;49.310;8.646;2023-11-25T06:03:55;5.67;;;1.33;;
19735;SDS011;32064;49.310;8.646;2023-11-25T06:06:22;2.27;;;1.10;;
19735;SDS011;32064;49.310;8.646;2023-11-25T06:08:48;2.97;;;1.40;;
19735;SDS011;32064;49.310;8.646;2023-11-25T06:11:24;8.43;;;1.50;;
19735;SDS011;32064;49.310;8.646;2023-11-25T06:13:58;1.90;;;1.33;;
19735;SDS011;32064;49.310;8.646;2023-11-25T06:16:23;2.10;;;1.40;;
19735;SDS011;32064;49.310;8.646;2023-11-25T06:18:50;1.20;;;1.10;;
19735;SDS011;32064;49.310;8.646;2023-11-25T06:21:16;1.90;;;1.30;;
19735;SDS011;32064;49.310;8.646;2023-11-25T06:23:41;2.70;;;1.27;;
19735;SDS011;32064;49.310;8.646;2023-11-25T06:26:08;1.87;;;1.50;;
19735;SDS011;32064;49.310;8.646;2023-11-25T06:28:41;0.73;;;0.73;;
19735;SDS011;32064;49.310;8.646;2023-11-25T06:31:11;6.63;;;1.33;;
19735;SDS011;32064;49.310;8.646;2023-11-25T06:33:37;1.10;;;0.90;;
19735;SDS011;32064;49.310;8.646;2023-11-25T06:36:03;1.03;;;0.87;;
19735;SDS011;32064;49.310;8.646;2023-11-25T06:38:30;1.10;;;1.00;;
19735;SDS011;32064;49.310;8.646;2023-11-25T06:40:55;1.63;;;1.20;;
19735;SDS011;32064;49.310;8.646;2023-11-25T06:43:21;0.63;;;0.63;;
19735;SDS011;32064;49.310;8.646;2023-11-25T06:45:46;0.60;;;0.60;;
19735;SDS011;32064;49.310;8.646;2023-11-25T06:48:16;1.33;;;0.73;;
19735;SDS011;32064;49.310;8.646;2023-11-25T06:50:45;1.10;;;0.90;;
19735;SDS011;32064;49.310;8.646;2023-11-25T06:53:10;0.60;;;0.60;;
19735;SDS011;32064;49.310;8.646;2023-11-25T06:55:36;1.47;;;1.00;;
19735;SDS011;32064;49.310;8.646;2023-11-25T06:58:06;1.00;;;0.60;;
19735;SDS011;32064;49.310;8.646;2023-11-25T07:00:36;0.57;;;0.57;;
19735;SDS011;32064;49.310;8.646;2023-11-25T07:03:02;2.30;;;0.90;;
19735;SDS011;32064;49.310;8.646;2023-11-25T07:05:28;0.97;;;0.67;;
19735;SDS011;32064;49.310;8.646;2023-11-25T07:07:53;1.57;;;0.83;;
19735;SDS011;32064;49.310;8.646;2023-11-25T07:10:18;0.90;;;0.80;;
19735;SDS011;32064;49.310;8.646;2023-11-25T07:12:46;0.47;;;0.43;;
19735;SDS011;32064;49.310;8.646;2023-11-25T07:15:11;0.97;;;0.60;;
19735;SDS011;32064;49.310;8.646;2023-11-25T07:17:38;0.70;;;0.70;;
19735;SDS011;32064;49.310;8.646;2023-11-25T07:20:04;1.03;;;0.90;;
19735;SDS011;32064;49.310;8.646;2023-11-25T07:22:43;1.87;;;0.93;;
19735;SDS011;32064;49.310;8.646;2023-11-25T07:25:10;0.70;;;0.70;;
19735;SDS011;32064;49.310;8.646;2023-11-25T07:27:39;1.77;;;1.33;;
19735;SDS011;32064;49.310;8.646;2023-11-25T07:30:12;2.97;;;1.37;;
19735;SDS011;32064;49.310;8.646;2023-11-25T07:32:38;2.70;;;1.37;;
19735;SDS011;32064;49.310;8.646;2023-11-25T07:35:05;1.30;;;0.97;;
19735;SDS011;32064;49.310;8.646;2023-11-25T07:37:33;2.60;;;2.37;;
19735;SDS011;32064;49.310;8.646;2023-11-25T07:39:59;2.10;;;1.10;;
19735;SDS011;32064;49.310;8.646;2023-11-25T07:42:26;4.30;;;1.10;;
19735;SDS011;32064;49.310;8.646;2023-11-25T07:44:51;0.80;;;0.80;;
19735;SDS011;32064;49.310;8.646;2023-11-25T07:47:17;0.80;;;0.80;;
19735;SDS011;32064;49.310;8.646;2023-11-25T07:49:42;1.37;;;1.27;;
19735;SDS011;32064;49.310;8.646;2023-11-25T07:52:08;2.13;;;0.93;;
19735;SDS011;32064;49.310;8.646;2023-11-25T07:54:33;0.87;;;0.83;;
19735;SDS011;32064;49.310;8.646;2023-11-25T07:56:59;1.07;;;0.97;;
19735;SDS011;32064;49.310;8.646;2023-11-25T07:59:25;1.53;;;1.00;;
19735;SDS011;32064;49.310;8.646;2023-11-25T08:01:51;2.37;;;1.30;;
19735;SDS011;32064;49.310;8.646;2023-11-25T08:04:18;4.10;;;1.27;;
19735;SDS011;32064;49.310;8.646;2023-11-25T08:06:44;9.20;;;1.17;;
19735;SDS011;32064;49.310;8.646;2023-11-25T08:09:10;1.37;;;0.90;;
19735;SDS011;32064;49.310;8.646;2023-11-25T08:11:35;0.70;;;0.70;;
19735;SDS011;32064;49.310;8.646;2023-11-25T08:14:00;1.43;;;1.03;;
19735;SDS011;32064;49.310;8.646;2023-11-25T08:16:26;1.07;;;0.80;;
19735;SDS011;32064;49.310;8.646;2023-11-25T08:18:51;1.90;;;0.97;;
19735;SDS011;32064;49.310;8.646;2023-11-25T08:21:18;2.27;;;1.00;;
19735;SDS011;32064;49.310;8.646;2023-11-25T08:23:43;1.33;;;1.23;;
19735;SDS011;32064;49.310;8.646;2023-11-25T08:26:19;2.50;;;1.60;;
19735;SDS011;32064;49.310;8.646;2023-11-25T08:28:45;1.27;;;1.10;;
19735;SDS011;32064;49.310;8.646;2023-11-25T08:31:10;3.50;;;1.13;;
19735;SDS011;32064;49.310;8.646;2023-11-25T08:33:36;2.50;;;0.77;;
19735;SDS011;32064;49.310;8.646;2023-11-25T08:36:01;1.13;;;0.87;;
19735;SDS011;32064;49.310;8.646;2023-11-25T08:38:27;4.83;;;1.00;;
19735;SDS011;32064;49.310;8.646;2023-11-25T08:40:52;3.30;;;0.93;;
19735;SDS011;32064;49.310;8.646;2023-11-25T08:43:18;1.57;;;0.77;;
19735;SDS011;32064;49.310;8.646;2023-11-25T08:45:43;1.47;;;1.33;;
19735;SDS011;32064;49.310;8.646;2023-11-25T08:48:12;1.37;;;1.00;;
19735;SDS011;32064;49.310;8.646;2023-11-25T08:50:39;5.17;;;1.17;;
19735;SDS011;32064;49.310;8.646;2023-11-25T08:53:05;0.80;;;0.70;;
19735;SDS011;32064;49.310;8.646;2023-11-25T08:55:31;1.27;;;0.60;;
19735;SDS011;32064;49.310;8.646;2023-11-25T08:57:57;1.07;;;0.97;;
19735;SDS011;32064;49.310;8.646;2023-11-25T09:00:22;2.70;;;1.07;;
19735;SDS011;32064;49.310;8.646;2023-11-25T09:02:48;0.67;;;0.67;;
19735;SDS011;32064;49.310;8.646;2023-11-25T09:05:16;0.80;;;0.70;;
19735;SDS011;32064;49.310;8.646;2023-11-25T09:07:46;2.67;;;1.30;;
19735;SDS011;32064;49.310;8.646;2023-11-25T09:10:15;1.07;;;0.87;;
19735;SDS011;32064;49.310;8.646;2023-11-25T09:12:41;1.30;;;1.20;;
19735;SDS011;32064;49.310;8.646;2023-11-25T09:15:07;3.13;;;1.30;;
19735;SDS011;32064;49.310;8.646;2023-11-25T09:17:33;3.37;;;1.17;;
19735;SDS011;32064;49.310;8.646;2023-11-25T09:20:04;4.33;;;1.80;;
19735;SDS011;32064;49.310;8.646;2023-11-25T09:22:34;4.63;;;1.20;;
19735;SDS011;32064;49.310;8.646;2023-11-25T09:25:01;9.63;;;1.70;;
19735;SDS011;32064;49.310;8.646;2023-11-25T09:27:27;2.90;;;1.20;;
19735;SDS011;32064;49.310;8.646;2023-11-25T09:29:53;3.20;;;1.03;;
19735;SDS011;32064;49.310;8.646;2023-11-25T09:32:18;1.20;;;0.97;;
19735;SDS011;32064;49.310;8.646;2023-11-25T09:34:45;7.57;;;2.07;;
19735;SDS011;32064;49.310;8.646;2023-11-25T09:37:10;1.47;;;1.10;;
19735;SDS011;32064;49.310;8.646;2023-11-25T09:39:37;4.57;;;1.47;;
19735;SDS011;32064;49.310;8.646;2023-11-25T09:42:02;2.53;;;1.63;;
19735;SDS011;32064;49.310;8.646;2023-11-25T09:44:29;3.13;;;1.40;;
19735;SDS011;32064;49.310;8.646;2023-11-25T09:46:55;1.63;;;1.37;;
19735;SDS011;32064;49.310;8.646;2023-11-25T09:49:21;1.23;;;0.90;;
19735;SDS011;32064;49.310;8.646;2023-11-25T09:51:47;4.60;;;1.97;;
19735;SDS011;32064;49.310;8.646;2023-11-25T09:54:16;2.37;;;1.57;;
19735;SDS011;32064;49.310;8.646;2023-11-25T09:56:47;3.67;;;1.53;;
19735;SDS011;32064;49.310;8.646;2023-11-25T09:59:15;1.13;;;1.03;;
19735;SDS011;32064;49.310;8.646;2023-11-25T10:01:41;3.20;;;1.10;;
19735;SDS011;32064;49.310;8.646;2023-11-25T10:04:07;3.13;;;1.70;;
19735;SDS011;32064;49.310;8.646;2023-11-25T10:06:36;1.23;;;1.13;;
19735;SDS011;32064;49.310;8.646;2023-11-25T10:09:02;3.37;;;1.70;;
19735;SDS011;32064;49.310;8.646;2023-11-25T10:11:29;2.63;;;1.20;;
19735;SDS011;32064;49.310;8.646;2023-11-25T10:13:54;2.00;;;1.27;;
19735;SDS011;32064;49.310;8.646;2023-11-25T10:16:25;1.33;;;1.13;;
19735;SDS011;32064;49.310;8.646;2023-11-25T10:18:53;1.67;;;1.17;;
19735;SDS011;32064;49.310;8.646;2023-11-25T10:21:18;5.50;;;1.90;;
19735;SDS011;32064;49.310;8.646;2023-11-25T10:23:44;5.70;;;2.30;;
19735;SDS011;32064;49.310;8.646;2023-11-25T10:26:10;1.63;;;1.43;;
19735;SDS011;32064;49.310;8.646;2023-11-25T10:28:36;1.97;;;1.40;;
19735;SDS011;32064;49.310;8.646;2023-11-25T10:31:02;1.53;;;1.37;;
19735;SDS011;32064;49.310;8.646;2023-11-25T10:33:30;3.80;;;2.43;;
19735;SDS011;32064;49.310;8.646;2023-11-25T10:35:57;2.47;;;1.60;;
19735;SDS011;32064;49.310;8.646;2023-11-25T10:38:23;2.87;;;1.73;;
19735;SDS011;32064;49.310;8.646;2023-11-25T10:43:28;1.97;;;1.23;;
19735;SDS011;32064;49.310;8.646;2023-11-25T10:46:07;2.63;;;1.60;;
19735;SDS011;32064;49.310;8.646;2023-11-25T10:48:34;5.60;;;1.77;;
19735;SDS011;32064;49.310;8.646;2023-11-25T10:51:02;3.47;;;2.37;;
19735;SDS011;32064;49.310;8.646;2023-11-25T10:53:29;3.67;;;2.30;;
19735;SDS011;32064;49.310;8.646;2023-11-25T10:55:57;5.03;;;2.33;;
19735;SDS011;32064;49.310;8.646;2023-11-25T10:58:24;5.07;;;1.90;;
19735;SDS011;32064;49.310;8.646;2023-11-25T11:00:56;4.93;;;1.37;;
19735;SDS011;32064;49.310;8.646;2023-11-25T11:06:18;2.20;;;1.37;;
19735;SDS011;32064;49.310;8.646;2023-11-25T11:08:46;2.47;;;1.33;;
19735;SDS011;32064;49.310;8.646;2023-11-25T11:11:16;3.77;;;1.63;;
19735;SDS011;32064;49.310;8.646;2023-11-25T11:13:50;1.40;;;1.07;;
19735;SDS011;32064;49.310;8.646;2023-11-25T11:16:31;2.37;;;1.40;;
19735;SDS011;32064;49.310;8.646;2023-11-25T11:19:03;1.93;;;1.23;;
19735;SDS011;32064;49.310;8.646;2023-11-25T11:21:34;3.33;;;1.43;;
19735;SDS011;32064;49.310;8.646;2023-11-25T11:24:03;2.97;;;1.77;;
19735;SDS011;32064;49.310;8.646;2023-11-25T11:32:06;2.00;;;1.37;;
19735;SDS011;32064;49.310;8.646;2023-11-25T11:34:33;3.40;;;1.13;;
19735;SDS011;32064;49.310;8.646;2023-11-25T11:37:00;3.60;;;2.17;;
19735;SDS011;32064;49.310;8.646;2023-11-25T11:39:36;2.83;;;1.63;;
19735;SDS011;32064;49.310;8.646;2023-11-25T11:44:55;3.17;;;1.50;;
19735;SDS011;32064;49.310;8.646;2023-11-25T11:47:39;2.77;;;1.70;;
19735;SDS011;32064;49.310;8.646;2023-11-25T11:50:17;7.30;;;2.10;;
19735;SDS011;32064;49.310;8.646;2023-11-25T11:52:47;1.87;;;1.37;;
19735;SDS011;32064;49.310;8.646;2023-11-25T11:58:03;1.87;;;1.40;;
19735;SDS011;32064;49.310;8.646;2023-11-25T12:00:30;3.07;;;1.90;;
19735;SDS011;32064;49.310;8.646;2023-11-25T12:02:59;1.73;;;1.27;;
19735;SDS011;32064;49.310;8.646;2023-11-25T12:05:25;1.73;;;1.33;;
19735;SDS011;32064;49.310;8.646;2023-11-25T12:07:50;3.57;;;1.40;;
19735;SDS011;32064;49.310;8.646;2023-11-25T12:10:16;4.13;;;2.33;;
19735;SDS011;32064;49.310;8.646;2023-11-25T12:12:42;2.63;;;1.90;;
19735;SDS011;32064;49.310;8.646;2023-11-25T12:15:09;3.80;;;1.73;;
19735;SDS011;32064;49.310;8.646;2023-11-25T12:17:34;3.37;;;1.87;;
19735;SDS011;32064;49.310;8.646;2023-11-25T12:20:00;6.53;;;2.10;;
19735;SDS011;32064;49.310;8.646;2023-11-25T12:22:25;5.20;;;2.37;;
19735;SDS011;32064;49.310;8.646;2023-11-25T12:24:51;2.50;;;1.63;;
19735;SDS011;32064;49.310;8.646;2023-11-25T12:27:17;6.50;;;2.50;;
19735;SDS011;32064;49.310;8.646;2023-11-25T12:29:43;4.83;;;2.73;;
19735;SDS011;32064;49.310;8.646;2023-11-25T12:32:08;4.73;;;1.93;;
19735;SDS011;32064;49.310;8.646;2023-11-25T12:34:34;4.80;;;1.97;;
19735;SDS011;32064;49.310;8.646;2023-11-25T12:36:59;1.27;;;1.13;;
19735;SDS011;32064;49.310;8.646;2023-11-25T12:39:26;19.77;;;1.30;;
19735;SDS011;32064;49.310;8.646;2023-11-25T12:41:52;1.33;;;1.23;;
19735;SDS011;32064;49.310;8.646;2023-11-25T12:44:18;2.23;;;2.00;;
19735;SDS011;32064;49.310;8.646;2023-11-25T12:47:01;2.60;;;1.70;;
19735;SDS011;32064;49.310;8.646;2023-11-25T12:49:32;4.03;;;2.33;;
19735;SDS011;32064;49.310;8.646;2023-11-25T12:51:58;3.23;;;1.97;;
19735;SDS011;32064;49.310;8.646;2023-11-25T12:54:23;6.63;;;2.17;;
19735;SDS011;32064;49.310;8.646;2023-11-25T12:59:28;5.57;;;3.10;;
19735;SDS011;32064;49.310;8.646;2023-11-25T13:04:50;6.10;;;2.57;;
19735;SDS011;32064;49.310;8.646;2023-11-25T13:07:32;11.40;;;2.20;;
19735;SDS011;32064;49.310;8.646;2023-11-25T13:09:58;2.87;;;2.13;;
19735;SDS011;32064;49.310;8.646;2023-11-25T13:12:27;10.13;;;2.33;;
19735;SDS011;32064;49.310;8.646;2023-11-25T13:14:52;2.00;;;1.77;;
19735;SDS011;32064;49.310;8.646;2023-11-25T13:17:20;1.97;;;1.57;;
19735;SDS011;32064;49.310;8.646;2023-11-25T13:19:46;1.73;;;1.60;;
19735;SDS011;32064;49.310;8.646;2023-11-25T13:22:12;3.03;;;2.10;;
19735;SDS011;32064;49.310;8.646;2023-11-25T13:24:37;1.60;;;1.50;;
19735;SDS011;32064;49.310;8.646;2023-11-25T13:27:03;2.63;;;1.37;;
19735;SDS011;32064;49.310;8.646;2023-11-25T13:29:31;14.07;;;1.50;;
19735;SDS011;32064;49.310;8.646;2023-11-25T13:31:56;2.10;;;1.27;;
19735;SDS011;32064;49.310;8.646;2023-11-25T13:34:22;2.93;;;1.50;;
19735;SDS011;32064;49.310;8.646;2023-11-25T13:36:47;1.07;;;0.97;;
19735;SDS011;32064;49.310;8.646;2023-11-25T13:39:13;1.83;;;1.27;;
19735;SDS011;32064;49.310;8.646;2023-11-25T13:41:44;0.97;;;0.90;;
19735;SDS011;32064;49.310;8.646;2023-11-25T13:44:11;2.53;;;2.20;;
19735;SDS011;32064;49.310;8.646;2023-11-25T13:46:38;4.83;;;2.03;;
19735;SDS011;32064;49.310;8.646;2023-11-25T13:49:03;2.97;;;1.67;;
19735;SDS011;32064;49.310;8.646;2023-11-25T13:51:28;1.70;;;1.30;;
19735;SDS011;32064;49.310;8.646;2023-11-25T13:53:55;1.60;;;1.23;;
19735;SDS011;32064;49.310;8.646;2023-11-25T13:56:22;2.33;;;1.57;;
19735;SDS011;32064;49.310;8.646;2023-11-25T13:58:49;2.83;;;1.60;;
19735;SDS011;32064;49.310;8.646;2023-11-25T14:01:14;3.37;;;1.80;;
19735;SDS011;32064;49.310;8.646;2023-11-25T14:03:41;3.37;;;1.93;;
19735;SDS011;32064;49.310;8.646;2023-11-25T14:06:07;3.00;;;1.70;;
19735;SDS011;32064;49.310;8.646;2023-11-25T14:08:32;7.20;;;2.00;;
19735;SDS011;32064;49.310;8.646;2023-11-25T14:10:59;6.83;;;2.00;;
19735;SDS011;32064;49.310;8.646;2023-11-25T14:13:24;3.60;;;2.13;;
19735;SDS011;32064;49.310;8.646;2023-11-25T14:15:52;2.07;;;1.47;;
19735;SDS011;32064;49.310;8.646;2023-11-25T14:18:17;1.83;;;1.67;;
19735;SDS011;32064;49.310;8.646;2023-11-25T14:20:43;2.83;;;1.63;;
19735;SDS011;32064;49.310;8.646;2023-11-25T14:23:08;1.17;;;1.10;;
19735;SDS011;32064;49.310;8.646;2023-11-25T14:25:35;1.37;;;1.27;;
19735;SDS011;32064;49.310;8.646;2023-11-25T14:28:01;1.30;;;0.90;;
19735;SDS011;32064;49.310;8.646;2023-11-25T14:30:26;1.30;;;1.20;;
19735;SDS011;32064;49.310;8.646;2023-11-25T14:32:53;6.40;;;1.60;;
19735;SDS011;32064;49.310;8.646;2023-11-25T14:35:19;4.33;;;1.77;;
19735;SDS011;32064;49.310;8.646;2023-11-25T14:37:46;2.50;;;1.70;;
19735;SDS011;32064;49.310;8.646;2023-11-25T14:40:12;4.77;;;1.83;;
19735;SDS011;32064;49.310;8.646;2023-11-25T14:42:39;2.23;;;1.63;;
19735;SDS011;32064;49.310;8.646;2023-11-25T14:45:05;3.53;;;1.60;;
19735;SDS011;32064;49.310;8.646;2023-11-25T14:47:32;2.27;;;1.70;;
19735;SDS011;32064;49.310;8.646;2023-11-25T14:49:58;2.93;;;1.23;;
19735;SDS011;32064;49.310;8.646;2023-11-25T14:52:23;2.63;;;1.23;;
19735;SDS011;32064;49.310;8.646;2023-11-25T14:54:49;1.87;;;0.97;;
19735;SDS011;32064;49.310;8.646;2023-11-25T14:57:15;1.27;;;0.83;;
19735;SDS011;32064;49.310;8.646;2023-11-25T14:59:41;4.90;;;1.13;;
19735;SDS011;32064;49.310;8.646;2023-11-25T15:02:07;1.50;;;1.03;;
19735;SDS011;32064;49.310;8.646;2023-11-25T15:04:32;2.00;;;0.97;;
19735;SDS011;32064;49.310;8.646;2023-11-25T15:06:58;1.07;;;0.97;;